sensor_id;sensor_type;location;lat;lon;timestamp;P1;durP1;ratioP1;P2;durP2;ratioP2
11092;SDS011;5600;50.864;6.102;2022-12-20T00:00:33;50.63;;;4.10;;
11092;SDS011;5600;50.864;6.102;2022-12-20T00:03:33;90.07;;;6.00;;
11092;SDS011;5600;50.864;6.102;2022-12-20T00:06:34;73.20;;;5.13;;
11092;SDS011;5600;50.864;6.102;2022-12-20T00:09:35;118.67;;;7.63;;
11092;SDS011;5600;50.864;6.102;2022-12-20T00:12:36;43.60;;;3.40;;
11092;SDS011;5600;50.864;6.102;2022-12-20T00:15:37;52.27;;;4.03;;
11092;SDS011;5600;50.864;6.102;2022-12-20T00:18:38;38.53;;;3.37;;
11092;SDS011;5600;50.864;6.102;2022-12-20T00:21:39;101.10;;;6.70;;
11092;SDS011;5600;50.864;6.102;2022-12-20T00:24:40;82.23;;;5.50;;
11092;SDS011;5600;50.864;6.102;2022-12-20T00:27:41;55.10;;;4.27;;
11092;SDS011;5600;50.864;6.102;2022-12-20T00:30:42;154.30;;;9.77;;
11092;SDS011;5600;50.864;6.102;2022-12-20T00:33:46;125.27;;;7.70;;
11092;SDS011;5600;50.864;6.102;2022-12-20T00:36:49;54.47;;;4.17;;
11092;SDS011;5600;50.864;6.102;2022-12-20T00:39:49;62.33;;;4.70;;
11092;SDS011;5600;50.864;6.102;2022-12-20T00:42:50;46.03;;;3.63;;
11092;SDS011;5600;50.864;6.102;2022-12-20T00:45:51;48.90;;;3.83;;
11092;SDS011;5600;50.864;6.102;2022-12-20T00:48:52;56.20;;;4.40;;
11092;SDS011;5600;50.864;6.102;2022-12-20T00:51:53;46.13;;;3.80;;
11092;SDS011;5600;50.864;6.102;2022-12-20T00:54:54;51.40;;;3.93;;
11092;SDS011;5600;50.864;6.102;2022-12-20T00:57:55;49.63;;;3.90;;
11092;SDS011;5600;50.864;6.102;2022-12-20T01:00:56;47.33;;;4.03;;
11092;SDS011;5600;50.864;6.102;2022-12-20T01:03:57;48.80;;;4.00;;
11092;SDS011;5600;50.864;6.102;2022-12-20T01:06:58;50.90;;;4.03;;
11092;SDS011;5600;50.864;6.102;2022-12-20T01:09:58;32.97;;;3.20;;
11092;SDS011;5600;50.864;6.102;2022-12-20T01:12:59;41.67;;;3.60;;
11092;SDS011;5600;50.864;6.102;2022-12-20T01:16:04;46.57;;;4.07;;
11092;SDS011;5600;50.864;6.102;2022-12-20T01:19:24;52.40;;;4.27;;
11092;SDS011;5600;50.864;6.102;2022-12-20T01:22:25;45.43;;;3.90;;
11092;SDS011;5600;50.864;6.102;2022-12-20T01:25:25;30.67;;;3.00;;
11092;SDS011;5600;50.864;6.102;2022-12-20T01:28:27;50.67;;;4.13;;
11092;SDS011;5600;50.864;6.102;2022-12-20T01:31:28;39.67;;;3.63;;
11092;SDS011;5600;50.864;6.102;2022-12-20T01:34:29;51.13;;;4.13;;
11092;SDS011;5600;50.864;6.102;2022-12-20T01:37:30;81.17;;;5.80;;
11092;SDS011;5600;50.864;6.102;2022-12-20T01:40:31;63.93;;;4.83;;
11092;SDS011;5600;50.864;6.102;2022-12-20T01:43:50;47.33;;;4.00;;
11092;SDS011;5600;50.864;6.102;2022-12-20T01:46:51;58.20;;;4.60;;
11092;SDS011;5600;50.864;6.102;2022-12-20T01:49:53;50.83;;;4.27;;
11092;SDS011;5600;50.864;6.102;2022-12-20T01:52:55;44.40;;;3.70;;
11092;SDS011;5600;50.864;6.102;2022-12-20T01:56:00;49.20;;;4.03;;
11092;SDS011;5600;50.864;6.102;2022-12-20T01:59:04;41.83;;;4.00;;
11092;SDS011;5600;50.864;6.102;2022-12-20T02:02:05;41.37;;;3.80;;
11092;SDS011;5600;50.864;6.102;2022-12-20T02:05:08;51.07;;;4.17;;
11092;SDS011;5600;50.864;6.102;2022-12-20T02:08:10;48.07;;;4.37;;
11092;SDS011;5600;50.864;6.102;2022-12-20T02:14:35;46.43;;;4.00;;
11092;SDS011;5600;50.864;6.102;2022-12-20T02:17:44;50.73;;;4.23;;
11092;SDS011;5600;50.864;6.102;2022-12-20T02:27:58;49.70;;;4.53;;
11092;SDS011;5600;50.864;6.102;2022-12-20T02:31:11;41.33;;;4.20;;
11092;SDS011;5600;50.864;6.102;2022-12-20T02:34:16;41.27;;;3.83;;
11092;SDS011;5600;50.864;6.102;2022-12-20T02:37:21;55.07;;;4.53;;
11092;SDS011;5600;50.864;6.102;2022-12-20T02:40:23;40.67;;;3.60;;
11092;SDS011;5600;50.864;6.102;2022-12-20T02:43:27;42.97;;;3.87;;
11092;SDS011;5600;50.864;6.102;2022-12-20T02:46:49;58.70;;;4.87;;
11092;SDS011;5600;50.864;6.102;2022-12-20T02:49:50;46.87;;;3.90;;
11092;SDS011;5600;50.864;6.102;2022-12-20T02:52:52;34.50;;;3.40;;
11092;SDS011;5600;50.864;6.102;2022-12-20T02:56:02;50.03;;;4.20;;
11092;SDS011;5600;50.864;6.102;2022-12-20T02:59:25;40.90;;;3.70;;
11092;SDS011;5600;50.864;6.102;2022-12-20T03:02:40;42.70;;;3.87;;
11092;SDS011;5600;50.864;6.102;2022-12-20T03:06:02;43.57;;;3.77;;
11092;SDS011;5600;50.864;6.102;2022-12-20T03:09:03;40.90;;;3.77;;
11092;SDS011;5600;50.864;6.102;2022-12-20T03:12:07;31.60;;;3.33;;
11092;SDS011;5600;50.864;6.102;2022-12-20T03:15:11;48.93;;;4.10;;
11092;SDS011;5600;50.864;6.102;2022-12-20T03:18:11;36.47;;;3.63;;
11092;SDS011;5600;50.864;6.102;2022-12-20T03:21:13;34.40;;;3.53;;
11092;SDS011;5600;50.864;6.102;2022-12-20T03:24:13;43.80;;;4.30;;
11092;SDS011;5600;50.864;6.102;2022-12-20T03:27:14;41.17;;;3.90;;
11092;SDS011;5600;50.864;6.102;2022-12-20T03:30:16;67.63;;;5.13;;
11092;SDS011;5600;50.864;6.102;2022-12-20T03:33:17;42.87;;;3.87;;
11092;SDS011;5600;50.864;6.102;2022-12-20T03:36:17;48.73;;;4.30;;
11092;SDS011;5600;50.864;6.102;2022-12-20T03:39:22;48.30;;;4.17;;
11092;SDS011;5600;50.864;6.102;2022-12-20T03:42:27;36.23;;;3.63;;
11092;SDS011;5600;50.864;6.102;2022-12-20T03:45:27;45.57;;;4.10;;
11092;SDS011;5600;50.864;6.102;2022-12-20T03:48:28;46.67;;;4.03;;
11092;SDS011;5600;50.864;6.102;2022-12-20T03:51:29;57.13;;;4.60;;
11092;SDS011;5600;50.864;6.102;2022-12-20T03:54:30;47.17;;;4.13;;
11092;SDS011;5600;50.864;6.102;2022-12-20T03:57:38;47.20;;;4.40;;
11092;SDS011;5600;50.864;6.102;2022-12-20T04:00:51;63.20;;;4.97;;
11092;SDS011;5600;50.864;6.102;2022-12-20T04:04:13;53.53;;;4.47;;
11092;SDS011;5600;50.864;6.102;2022-12-20T04:07:14;57.60;;;4.60;;
11092;SDS011;5600;50.864;6.102;2022-12-20T04:10:19;50.63;;;4.40;;
11092;SDS011;5600;50.864;6.102;2022-12-20T04:13:20;55.07;;;4.77;;
11092;SDS011;5600;50.864;6.102;2022-12-20T04:16:23;41.33;;;3.87;;
11092;SDS011;5600;50.864;6.102;2022-12-20T04:19:26;53.33;;;4.50;;
11092;SDS011;5600;50.864;6.102;2022-12-20T04:22:26;47.17;;;4.07;;
11092;SDS011;5600;50.864;6.102;2022-12-20T04:25:35;57.30;;;4.83;;
11092;SDS011;5600;50.864;6.102;2022-12-20T04:28:35;57.13;;;4.57;;
11092;SDS011;5600;50.864;6.102;2022-12-20T04:31:37;42.87;;;3.97;;
11092;SDS011;5600;50.864;6.102;2022-12-20T04:34:37;55.20;;;4.43;;
11092;SDS011;5600;50.864;6.102;2022-12-20T04:37:39;56.20;;;4.73;;
11092;SDS011;5600;50.864;6.102;2022-12-20T04:40:40;40.93;;;3.87;;
11092;SDS011;5600;50.864;6.102;2022-12-20T04:43:41;56.67;;;4.57;;
11092;SDS011;5600;50.864;6.102;2022-12-20T04:46:42;49.17;;;4.30;;
11092;SDS011;5600;50.864;6.102;2022-12-20T04:49:46;62.50;;;4.73;;
11092;SDS011;5600;50.864;6.102;2022-12-20T04:52:47;56.77;;;4.43;;
11092;SDS011;5600;50.864;6.102;2022-12-20T04:56:07;46.23;;;3.90;;
11092;SDS011;5600;50.864;6.102;2022-12-20T04:59:08;40.03;;;3.63;;
11092;SDS011;5600;50.864;6.102;2022-12-20T05:02:12;37.60;;;3.60;;
11092;SDS011;5600;50.864;6.102;2022-12-20T05:05:29;52.73;;;4.43;;
11092;SDS011;5600;50.864;6.102;2022-12-20T05:08:31;38.03;;;3.40;;
11092;SDS011;5600;50.864;6.102;2022-12-20T05:11:32;54.43;;;4.50;;
11092;SDS011;5600;50.864;6.102;2022-12-20T05:14:33;44.93;;;3.90;;
11092;SDS011;5600;50.864;6.102;2022-12-20T05:17:33;66.63;;;4.93;;
11092;SDS011;5600;50.864;6.102;2022-12-20T05:20:35;55.40;;;4.30;;
11092;SDS011;5600;50.864;6.102;2022-12-20T05:23:37;34.67;;;3.20;;
11092;SDS011;5600;50.864;6.102;2022-12-20T05:26:58;44.27;;;3.47;;
11092;SDS011;5600;50.864;6.102;2022-12-20T05:29:59;40.90;;;3.37;;
11092;SDS011;5600;50.864;6.102;2022-12-20T05:33:02;60.23;;;4.70;;
11092;SDS011;5600;50.864;6.102;2022-12-20T05:36:04;37.73;;;3.33;;
11092;SDS011;5600;50.864;6.102;2022-12-20T05:39:05;36.43;;;3.23;;
11092;SDS011;5600;50.864;6.102;2022-12-20T05:42:09;46.50;;;3.73;;
11092;SDS011;5600;50.864;6.102;2022-12-20T05:45:10;49.13;;;4.07;;
11092;SDS011;5600;50.864;6.102;2022-12-20T05:48:19;39.77;;;3.30;;
11092;SDS011;5600;50.864;6.102;2022-12-20T05:51:20;51.83;;;3.93;;
11092;SDS011;5600;50.864;6.102;2022-12-20T05:54:30;71.43;;;5.10;;
11092;SDS011;5600;50.864;6.102;2022-12-20T05:57:37;67.47;;;4.97;;
11092;SDS011;5600;50.864;6.102;2022-12-20T06:00:39;51.83;;;3.97;;
11092;SDS011;5600;50.864;6.102;2022-12-20T06:03:41;48.23;;;3.77;;
11092;SDS011;5600;50.864;6.102;2022-12-20T06:06:46;60.00;;;4.40;;
11092;SDS011;5600;50.864;6.102;2022-12-20T06:09:50;54.13;;;3.90;;
11092;SDS011;5600;50.864;6.102;2022-12-20T06:12:53;49.27;;;3.90;;
11092;SDS011;5600;50.864;6.102;2022-12-20T06:15:55;71.90;;;5.00;;
11092;SDS011;5600;50.864;6.102;2022-12-20T06:18:56;64.20;;;4.60;;
11092;SDS011;5600;50.864;6.102;2022-12-20T06:21:57;55.70;;;4.33;;
11092;SDS011;5600;50.864;6.102;2022-12-20T06:25:05;69.07;;;5.03;;
11092;SDS011;5600;50.864;6.102;2022-12-20T06:28:09;68.13;;;5.20;;
11092;SDS011;5600;50.864;6.102;2022-12-20T06:31:10;84.40;;;5.90;;
11092;SDS011;5600;50.864;6.102;2022-12-20T06:34:15;54.20;;;4.50;;
11092;SDS011;5600;50.864;6.102;2022-12-20T06:37:17;87.37;;;6.17;;
11092;SDS011;5600;50.864;6.102;2022-12-20T06:40:17;69.23;;;5.33;;
11092;SDS011;5600;50.864;6.102;2022-12-20T06:43:18;74.47;;;5.77;;
11092;SDS011;5600;50.864;6.102;2022-12-20T06:46:20;92.60;;;6.50;;
11092;SDS011;5600;50.864;6.102;2022-12-20T06:49:21;94.80;;;7.07;;
11092;SDS011;5600;50.864;6.102;2022-12-20T06:52:22;97.23;;;6.50;;
11092;SDS011;5600;50.864;6.102;2022-12-20T06:55:27;71.80;;;5.00;;
11092;SDS011;5600;50.864;6.102;2022-12-20T06:58:28;57.23;;;4.60;;
11092;SDS011;5600;50.864;6.102;2022-12-20T07:01:29;71.27;;;5.27;;
11092;SDS011;5600;50.864;6.102;2022-12-20T07:04:29;49.77;;;4.50;;
11092;SDS011;5600;50.864;6.102;2022-12-20T07:07:30;62.07;;;4.83;;
11092;SDS011;5600;50.864;6.102;2022-12-20T07:10:35;48.37;;;4.67;;
11092;SDS011;5600;50.864;6.102;2022-12-20T07:13:36;51.37;;;4.10;;
11092;SDS011;5600;50.864;6.102;2022-12-20T07:16:37;62.93;;;4.80;;
11092;SDS011;5600;50.864;6.102;2022-12-20T07:19:41;45.07;;;3.77;;
11092;SDS011;5600;50.864;6.102;2022-12-20T07:22:42;50.67;;;4.13;;
11092;SDS011;5600;50.864;6.102;2022-12-20T07:25:43;52.87;;;3.97;;
11092;SDS011;5600;50.864;6.102;2022-12-20T07:28:51;54.30;;;4.27;;
11092;SDS011;5600;50.864;6.102;2022-12-20T07:31:52;61.53;;;4.53;;
11092;SDS011;5600;50.864;6.102;2022-12-20T07:34:53;46.53;;;3.70;;
11092;SDS011;5600;50.864;6.102;2022-12-20T07:37:53;44.03;;;3.50;;
11092;SDS011;5600;50.864;6.102;2022-12-20T07:40:54;60.10;;;4.47;;
11092;SDS011;5600;50.864;6.102;2022-12-20T07:43:55;39.90;;;3.43;;
11092;SDS011;5600;50.864;6.102;2022-12-20T07:46:58;76.70;;;5.17;;
11092;SDS011;5600;50.864;6.102;2022-12-20T07:49:59;69.63;;;4.87;;
11092;SDS011;5600;50.864;6.102;2022-12-20T07:53:00;68.77;;;5.00;;
11092;SDS011;5600;50.864;6.102;2022-12-20T07:56:04;55.93;;;4.30;;
11092;SDS011;5600;50.864;6.102;2022-12-20T07:59:06;63.63;;;4.67;;
11092;SDS011;5600;50.864;6.102;2022-12-20T08:02:09;56.53;;;4.33;;
11092;SDS011;5600;50.864;6.102;2022-12-20T08:05:14;81.53;;;5.37;;
11092;SDS011;5600;50.864;6.102;2022-12-20T08:08:16;40.23;;;3.33;;
11092;SDS011;5600;50.864;6.102;2022-12-20T08:11:19;63.00;;;4.53;;
11092;SDS011;5600;50.864;6.102;2022-12-20T08:14:21;84.03;;;6.10;;
11092;SDS011;5600;50.864;6.102;2022-12-20T08:17:22;110.57;;;7.20;;
11092;SDS011;5600;50.864;6.102;2022-12-20T08:20:23;64.53;;;4.67;;
11092;SDS011;5600;50.864;6.102;2022-12-20T08:23:24;91.50;;;7.97;;
11092;SDS011;5600;50.864;6.102;2022-12-20T08:26:24;53.60;;;4.30;;
11092;SDS011;5600;50.864;6.102;2022-12-20T08:29:25;68.67;;;4.77;;
11092;SDS011;5600;50.864;6.102;2022-12-20T08:32:26;69.83;;;5.23;;
11092;SDS011;5600;50.864;6.102;2022-12-20T08:35:27;75.87;;;5.10;;
11092;SDS011;5600;50.864;6.102;2022-12-20T08:38:28;73.73;;;5.10;;
11092;SDS011;5600;50.864;6.102;2022-12-20T08:41:30;61.73;;;4.70;;
11092;SDS011;5600;50.864;6.102;2022-12-20T08:44:31;73.73;;;6.33;;
11092;SDS011;5600;50.864;6.102;2022-12-20T08:47:31;94.17;;;6.27;;
11092;SDS011;5600;50.864;6.102;2022-12-20T08:50:32;56.37;;;4.13;;
11092;SDS011;5600;50.864;6.102;2022-12-20T08:53:33;52.20;;;4.17;;
11092;SDS011;5600;50.864;6.102;2022-12-20T08:56:34;72.63;;;5.03;;
11092;SDS011;5600;50.864;6.102;2022-12-20T08:59:35;68.63;;;5.00;;
11092;SDS011;5600;50.864;6.102;2022-12-20T09:02:35;55.50;;;4.33;;
11092;SDS011;5600;50.864;6.102;2022-12-20T09:05:42;51.70;;;4.17;;
11092;SDS011;5600;50.864;6.102;2022-12-20T09:08:44;63.07;;;4.53;;
11092;SDS011;5600;50.864;6.102;2022-12-20T09:11:46;65.27;;;4.60;;
11092;SDS011;5600;50.864;6.102;2022-12-20T09:14:46;66.00;;;4.57;;
11092;SDS011;5600;50.864;6.102;2022-12-20T09:17:47;64.13;;;4.63;;
11092;SDS011;5600;50.864;6.102;2022-12-20T09:20:48;61.73;;;4.47;;
11092;SDS011;5600;50.864;6.102;2022-12-20T09:23:49;63.07;;;4.60;;
11092;SDS011;5600;50.864;6.102;2022-12-20T09:26:51;49.97;;;4.00;;
11092;SDS011;5600;50.864;6.102;2022-12-20T09:29:51;58.40;;;4.47;;
11092;SDS011;5600;50.864;6.102;2022-12-20T09:32:52;58.10;;;4.37;;
11092;SDS011;5600;50.864;6.102;2022-12-20T09:35:53;69.90;;;4.77;;
11092;SDS011;5600;50.864;6.102;2022-12-20T09:38:54;54.43;;;3.93;;
11092;SDS011;5600;50.864;6.102;2022-12-20T09:41:56;54.23;;;4.20;;
11092;SDS011;5600;50.864;6.102;2022-12-20T09:45:00;60.13;;;4.60;;
11092;SDS011;5600;50.864;6.102;2022-12-20T09:48:05;57.23;;;4.43;;
11092;SDS011;5600;50.864;6.102;2022-12-20T09:54:45;40.50;;;3.60;;
11092;SDS011;5600;50.864;6.102;2022-12-20T10:01:22;76.57;;;5.27;;
11092;SDS011;5600;50.864;6.102;2022-12-20T10:04:28;57.57;;;4.57;;
11092;SDS011;5600;50.864;6.102;2022-12-20T10:11:00;81.57;;;5.63;;
11092;SDS011;5600;50.864;6.102;2022-12-20T10:18:16;53.27;;;4.13;;
11092;SDS011;5600;50.864;6.102;2022-12-20T10:25:05;81.30;;;5.60;;
11092;SDS011;5600;50.864;6.102;2022-12-20T10:28:17;183.23;;;10.30;;
11092;SDS011;5600;50.864;6.102;2022-12-20T10:31:25;111.73;;;6.93;;
11092;SDS011;5600;50.864;6.102;2022-12-20T10:34:26;61.37;;;4.40;;
11092;SDS011;5600;50.864;6.102;2022-12-20T10:37:27;184.57;;;10.70;;
11092;SDS011;5600;50.864;6.102;2022-12-20T10:40:30;113.83;;;7.07;;
11092;SDS011;5600;50.864;6.102;2022-12-20T10:43:43;117.53;;;7.57;;
11092;SDS011;5600;50.864;6.102;2022-12-20T10:46:48;93.30;;;6.23;;
11092;SDS011;5600;50.864;6.102;2022-12-20T10:49:52;101.93;;;6.73;;
11092;SDS011;5600;50.864;6.102;2022-12-20T10:56:11;77.13;;;5.40;;
11092;SDS011;5600;50.864;6.102;2022-12-20T11:05:26;98.23;;;6.37;;
11092;SDS011;5600;50.864;6.102;2022-12-20T11:08:27;76.80;;;5.20;;
11092;SDS011;5600;50.864;6.102;2022-12-20T11:11:31;68.77;;;5.10;;
11092;SDS011;5600;50.864;6.102;2022-12-20T11:14:33;77.83;;;5.33;;
11092;SDS011;5600;50.864;6.102;2022-12-20T11:17:36;128.60;;;7.87;;
11092;SDS011;5600;50.864;6.102;2022-12-20T11:24:07;82.80;;;5.67;;
11092;SDS011;5600;50.864;6.102;2022-12-20T11:30:30;58.53;;;4.50;;
11092;SDS011;5600;50.864;6.102;2022-12-20T11:33:54;57.27;;;4.67;;
11092;SDS011;5600;50.864;6.102;2022-12-20T11:37:25;57.83;;;6.43;;
11092;SDS011;5600;50.864;6.102;2022-12-20T11:40:47;74.77;;;5.47;;
11092;SDS011;5600;50.864;6.102;2022-12-20T11:47:37;89.03;;;6.03;;
11092;SDS011;5600;50.864;6.102;2022-12-20T11:50:57;84.33;;;6.07;;
11092;SDS011;5600;50.864;6.102;2022-12-20T11:57:26;121.63;;;8.07;;
11092;SDS011;5600;50.864;6.102;2022-12-20T12:00:31;58.20;;;4.43;;
11092;SDS011;5600;50.864;6.102;2022-12-20T12:03:38;55.10;;;4.33;;
11092;SDS011;5600;50.864;6.102;2022-12-20T12:07:02;40.93;;;3.97;;
11092;SDS011;5600;50.864;6.102;2022-12-20T12:10:16;49.80;;;4.30;;
11092;SDS011;5600;50.864;6.102;2022-12-20T12:13:26;79.60;;;5.63;;
11092;SDS011;5600;50.864;6.102;2022-12-20T12:19:35;58.77;;;5.00;;
11092;SDS011;5600;50.864;6.102;2022-12-20T12:22:42;58.20;;;4.60;;
11092;SDS011;5600;50.864;6.102;2022-12-20T12:25:44;67.17;;;5.13;;
11092;SDS011;5600;50.864;6.102;2022-12-20T12:28:46;73.63;;;5.87;;
11092;SDS011;5600;50.864;6.102;2022-12-20T12:31:54;67.43;;;5.63;;
11092;SDS011;5600;50.864;6.102;2022-12-20T12:38:23;47.83;;;4.13;;
11092;SDS011;5600;50.864;6.102;2022-12-20T12:45:13;68.37;;;5.17;;
11092;SDS011;5600;50.864;6.102;2022-12-20T12:48:24;78.37;;;5.50;;
11092;SDS011;5600;50.864;6.102;2022-12-20T12:51:38;52.60;;;4.10;;
11092;SDS011;5600;50.864;6.102;2022-12-20T12:54:41;56.00;;;4.57;;
11092;SDS011;5600;50.864;6.102;2022-12-20T12:57:53;52.57;;;4.57;;
11092;SDS011;5600;50.864;6.102;2022-12-20T13:04:08;48.27;;;4.13;;
11092;SDS011;5600;50.864;6.102;2022-12-20T13:13:33;69.43;;;5.27;;
11092;SDS011;5600;50.864;6.102;2022-12-20T13:16:34;47.93;;;4.00;;
11092;SDS011;5600;50.864;6.102;2022-12-20T13:19:38;50.20;;;4.07;;
11092;SDS011;5600;50.864;6.102;2022-12-20T13:26:40;49.83;;;4.03;;
11092;SDS011;5600;50.864;6.102;2022-12-20T13:36:43;45.57;;;3.97;;
11092;SDS011;5600;50.864;6.102;2022-12-20T13:39:46;48.70;;;4.30;;
11092;SDS011;5600;50.864;6.102;2022-12-20T13:42:47;67.33;;;7.27;;
11092;SDS011;5600;50.864;6.102;2022-12-20T13:49:20;63.93;;;11.33;;
11092;SDS011;5600;50.864;6.102;2022-12-20T13:52:23;58.53;;;6.73;;
11092;SDS011;5600;50.864;6.102;2022-12-20T13:55:35;67.77;;;7.80;;
11092;SDS011;5600;50.864;6.102;2022-12-20T13:58:41;48.73;;;5.97;;
11092;SDS011;5600;50.864;6.102;2022-12-20T14:01:48;75.97;;;7.27;;
11092;SDS011;5600;50.864;6.102;2022-12-20T14:04:54;73.50;;;7.33;;
11092;SDS011;5600;50.864;6.102;2022-12-20T14:07:58;64.97;;;7.07;;
11092;SDS011;5600;50.864;6.102;2022-12-20T14:11:14;66.03;;;7.43;;
11092;SDS011;5600;50.864;6.102;2022-12-20T14:14:21;59.63;;;6.20;;
11092;SDS011;5600;50.864;6.102;2022-12-20T14:20:32;68.83;;;8.23;;
11092;SDS011;5600;50.864;6.102;2022-12-20T14:23:37;61.07;;;7.43;;
11092;SDS011;5600;50.864;6.102;2022-12-20T14:26:40;48.13;;;4.20;;
11092;SDS011;5600;50.864;6.102;2022-12-20T14:29:47;65.63;;;6.23;;
11092;SDS011;5600;50.864;6.102;2022-12-20T14:32:48;69.03;;;5.43;;
11092;SDS011;5600;50.864;6.102;2022-12-20T14:35:49;58.23;;;5.03;;
11092;SDS011;5600;50.864;6.102;2022-12-20T14:38:51;61.47;;;5.43;;
11092;SDS011;5600;50.864;6.102;2022-12-20T14:41:56;56.60;;;5.17;;
11092;SDS011;5600;50.864;6.102;2022-12-20T14:48:15;53.27;;;5.00;;
11092;SDS011;5600;50.864;6.102;2022-12-20T14:51:19;57.37;;;5.13;;
11092;SDS011;5600;50.864;6.102;2022-12-20T14:54:22;60.53;;;5.63;;
11092;SDS011;5600;50.864;6.102;2022-12-20T14:57:31;84.23;;;6.40;;
11092;SDS011;5600;50.864;6.102;2022-12-20T15:00:37;56.37;;;5.50;;
11092;SDS011;5600;50.864;6.102;2022-12-20T15:03:47;57.63;;;5.13;;
11092;SDS011;5600;50.864;6.102;2022-12-20T15:06:52;51.83;;;4.80;;
11092;SDS011;5600;50.864;6.102;2022-12-20T15:09:52;50.17;;;4.87;;
11092;SDS011;5600;50.864;6.102;2022-12-20T15:12:53;66.90;;;5.67;;
11092;SDS011;5600;50.864;6.102;2022-12-20T15:15:54;62.57;;;5.30;;
11092;SDS011;5600;50.864;6.102;2022-12-20T15:18:57;73.13;;;6.17;;
11092;SDS011;5600;50.864;6.102;2022-12-20T15:22:01;85.30;;;6.53;;
11092;SDS011;5600;50.864;6.102;2022-12-20T15:25:04;188.50;;;11.27;;
11092;SDS011;5600;50.864;6.102;2022-12-20T15:28:16;93.37;;;6.80;;
11092;SDS011;5600;50.864;6.102;2022-12-20T15:31:20;112.53;;;8.17;;
11092;SDS011;5600;50.864;6.102;2022-12-20T15:37:36;94.53;;;6.90;;
11092;SDS011;5600;50.864;6.102;2022-12-20T15:40:37;77.50;;;6.27;;
11092;SDS011;5600;50.864;6.102;2022-12-20T15:43:38;110.87;;;8.23;;
11092;SDS011;5600;50.864;6.102;2022-12-20T15:46:40;87.07;;;6.67;;
11092;SDS011;5600;50.864;6.102;2022-12-20T15:49:40;81.57;;;6.83;;
11092;SDS011;5600;50.864;6.102;2022-12-20T15:52:41;111.50;;;8.20;;
11092;SDS011;5600;50.864;6.102;2022-12-20T15:55:43;76.90;;;6.40;;
11092;SDS011;5600;50.864;6.102;2022-12-20T15:58:44;74.53;;;6.17;;
11092;SDS011;5600;50.864;6.102;2022-12-20T16:01:46;215.60;;;12.87;;
11092;SDS011;5600;50.864;6.102;2022-12-20T16:04:47;135.30;;;8.60;;
11092;SDS011;5600;50.864;6.102;2022-12-20T16:07:49;73.70;;;5.87;;
11092;SDS011;5600;50.864;6.102;2022-12-20T16:10:50;95.33;;;7.10;;
11092;SDS011;5600;50.864;6.102;2022-12-20T16:13:52;114.57;;;8.00;;
11092;SDS011;5600;50.864;6.102;2022-12-20T16:16:53;97.13;;;7.47;;
11092;SDS011;5600;50.864;6.102;2022-12-20T16:19:54;58.03;;;7.20;;
11092;SDS011;5600;50.864;6.102;2022-12-20T16:22:55;107.40;;;7.47;;
11092;SDS011;5600;50.864;6.102;2022-12-20T16:25:55;133.07;;;8.90;;
11092;SDS011;5600;50.864;6.102;2022-12-20T16:28:56;60.83;;;5.87;;
11092;SDS011;5600;50.864;6.102;2022-12-20T16:31:57;152.70;;;9.90;;
11092;SDS011;5600;50.864;6.102;2022-12-20T16:34:57;109.33;;;8.77;;
11092;SDS011;5600;50.864;6.102;2022-12-20T16:37:58;74.10;;;5.53;;
11092;SDS011;5600;50.864;6.102;2022-12-20T16:41:00;149.50;;;9.77;;
11092;SDS011;5600;50.864;6.102;2022-12-20T16:44:13;109.60;;;8.10;;
11092;SDS011;5600;50.864;6.102;2022-12-20T16:47:15;120.53;;;8.60;;
11092;SDS011;5600;50.864;6.102;2022-12-20T16:50:16;117.33;;;8.07;;
11092;SDS011;5600;50.864;6.102;2022-12-20T16:53:18;73.30;;;5.93;;
11092;SDS011;5600;50.864;6.102;2022-12-20T16:56:34;122.53;;;8.77;;
11092;SDS011;5600;50.864;6.102;2022-12-20T16:59:34;70.93;;;6.27;;
11092;SDS011;5600;50.864;6.102;2022-12-20T17:02:35;128.00;;;9.40;;
11092;SDS011;5600;50.864;6.102;2022-12-20T17:05:36;106.07;;;7.47;;
11092;SDS011;5600;50.864;6.102;2022-12-20T17:08:38;60.20;;;5.20;;
11092;SDS011;5600;50.864;6.102;2022-12-20T17:11:39;111.80;;;7.27;;
11092;SDS011;5600;50.864;6.102;2022-12-20T17:14:40;106.33;;;7.13;;
11092;SDS011;5600;50.864;6.102;2022-12-20T17:17:40;80.03;;;5.83;;
11092;SDS011;5600;50.864;6.102;2022-12-20T17:20:41;79.67;;;5.77;;
11092;SDS011;5600;50.864;6.102;2022-12-20T17:23:42;96.53;;;6.60;;
11092;SDS011;5600;50.864;6.102;2022-12-20T17:26:42;80.93;;;5.90;;
11092;SDS011;5600;50.864;6.102;2022-12-20T17:29:43;167.60;;;10.03;;
11092;SDS011;5600;50.864;6.102;2022-12-20T17:32:44;111.80;;;7.27;;
11092;SDS011;5600;50.864;6.102;2022-12-20T17:35:45;87.77;;;5.93;;
11092;SDS011;5600;50.864;6.102;2022-12-20T17:38:45;70.00;;;5.30;;
11092;SDS011;5600;50.864;6.102;2022-12-20T17:41:50;87.80;;;6.57;;
11092;SDS011;5600;50.864;6.102;2022-12-20T17:44:53;105.57;;;7.67;;
11092;SDS011;5600;50.864;6.102;2022-12-20T17:47:53;78.70;;;6.10;;
11092;SDS011;5600;50.864;6.102;2022-12-20T17:50:54;84.93;;;6.23;;
11092;SDS011;5600;50.864;6.102;2022-12-20T17:53:56;130.57;;;9.00;;
11092;SDS011;5600;50.864;6.102;2022-12-20T17:56:58;121.20;;;8.50;;
11092;SDS011;5600;50.864;6.102;2022-12-20T17:59:58;71.17;;;7.60;;
11092;SDS011;5600;50.864;6.102;2022-12-20T18:02:59;105.37;;;9.70;;
11092;SDS011;5600;50.864;6.102;2022-12-20T18:06:00;132.67;;;9.67;;
11092;SDS011;5600;50.864;6.102;2022-12-20T18:09:06;81.37;;;7.80;;
11092;SDS011;5600;50.864;6.102;2022-12-20T18:12:12;72.17;;;5.97;;
11092;SDS011;5600;50.864;6.102;2022-12-20T18:15:13;82.30;;;6.40;;
11092;SDS011;5600;50.864;6.102;2022-12-20T18:18:14;118.67;;;7.80;;
11092;SDS011;5600;50.864;6.102;2022-12-20T18:21:15;110.17;;;7.67;;
11092;SDS011;5600;50.864;6.102;2022-12-20T18:24:17;75.70;;;6.30;;
11092;SDS011;5600;50.864;6.102;2022-12-20T18:27:20;128.70;;;8.23;;
11092;SDS011;5600;50.864;6.102;2022-12-20T18:30:21;117.60;;;8.03;;
11092;SDS011;5600;50.864;6.102;2022-12-20T18:33:21;81.93;;;9.10;;
11092;SDS011;5600;50.864;6.102;2022-12-20T18:36:25;74.60;;;7.77;;
11092;SDS011;5600;50.864;6.102;2022-12-20T18:39:28;160.00;;;17.20;;
11092;SDS011;5600;50.864;6.102;2022-12-20T18:42:28;199.27;;;14.10;;
11092;SDS011;5600;50.864;6.102;2022-12-20T18:45:29;130.07;;;12.90;;
11092;SDS011;5600;50.864;6.102;2022-12-20T18:48:30;106.97;;;14.37;;
11092;SDS011;5600;50.864;6.102;2022-12-20T18:51:32;137.50;;;10.50;;
11092;SDS011;5600;50.864;6.102;2022-12-20T18:54:37;138.57;;;9.43;;
11092;SDS011;5600;50.864;6.102;2022-12-20T18:57:38;85.37;;;6.93;;
11092;SDS011;5600;50.864;6.102;2022-12-20T19:00:38;116.47;;;8.13;;
11092;SDS011;5600;50.864;6.102;2022-12-20T19:03:39;117.17;;;8.30;;
11092;SDS011;5600;50.864;6.102;2022-12-20T19:06:40;90.87;;;7.17;;
11092;SDS011;5600;50.864;6.102;2022-12-20T19:09:40;105.77;;;7.70;;
11092;SDS011;5600;50.864;6.102;2022-12-20T19:12:41;165.53;;;10.03;;
11092;SDS011;5600;50.864;6.102;2022-12-20T19:15:42;96.53;;;6.73;;
11092;SDS011;5600;50.864;6.102;2022-12-20T19:18:43;69.50;;;5.67;;
11092;SDS011;5600;50.864;6.102;2022-12-20T19:21:44;128.33;;;8.53;;
11092;SDS011;5600;50.864;6.102;2022-12-20T19:24:45;139.10;;;9.10;;
11092;SDS011;5600;50.864;6.102;2022-12-20T19:27:46;107.43;;;7.60;;
11092;SDS011;5600;50.864;6.102;2022-12-20T19:30:47;99.43;;;7.27;;
11092;SDS011;5600;50.864;6.102;2022-12-20T19:33:48;119.43;;;8.23;;
11092;SDS011;5600;50.864;6.102;2022-12-20T19:36:50;57.87;;;5.37;;
11092;SDS011;5600;50.864;6.102;2022-12-20T19:39:51;50.20;;;4.87;;
11092;SDS011;5600;50.864;6.102;2022-12-20T19:42:52;97.40;;;7.10;;
11092;SDS011;5600;50.864;6.102;2022-12-20T19:45:55;106.33;;;7.70;;
11092;SDS011;5600;50.864;6.102;2022-12-20T19:48:57;126.83;;;8.70;;
11092;SDS011;5600;50.864;6.102;2022-12-20T19:51:58;145.60;;;9.80;;
11092;SDS011;5600;50.864;6.102;2022-12-20T19:54:59;116.37;;;8.43;;
11092;SDS011;5600;50.864;6.102;2022-12-20T19:58:00;83.73;;;7.17;;